sensor_id;sensor_type;location;lat;lon;timestamp;pressure;altitude;pressure_sealevel;temperature;humidity
64340;BME280;63709;53.258;-8.814;2023-03-29T00:00:43;100403.53;;;15.84;100.00
64340;BME280;63709;53.258;-8.814;2023-03-29T00:03:08;100408.25;;;15.90;100.00
64340;BME280;63709;53.258;-8.814;2023-03-29T00:05:37;100399.66;;;15.86;100.00
64340;BME280;63709;53.258;-8.814;2023-03-29T00:08:03;100397.50;;;15.90;100.00
64340;BME280;63709;53.258;-8.814;2023-03-29T00:10:30;100398.50;;;15.89;100.00
64340;BME280;63709;53.258;-8.814;2023-03-29T00:12:56;100395.47;;;15.84;100.00
64340;BME280;63709;53.258;-8.814;2023-03-29T00:15:22;100397.16;;;15.85;100.00
64340;BME280;63709;53.258;-8.814;2023-03-29T00:17:49;100392.69;;;15.76;100.00
64340;BME280;63709;53.258;-8.814;2023-03-29T00:20:15;100393.72;;;15.75;100.00
64340;BME280;63709;53.258;-8.814;2023-03-29T00:22:41;100387.28;;;15.67;100.00
64340;BME280;63709;53.258;-8.814;2023-03-29T00:25:07;100388.22;;;15.58;100.00
64340;BME280;63709;53.258;-8.814;2023-03-29T00:27:34;100383.91;;;15.65;100.00
64340;BME280;63709;53.258;-8.814;2023-03-29T00:30:01;100375.97;;;15.64;100.00
64340;BME280;63709;53.258;-8.814;2023-03-29T00:32:29;100365.38;;;15.62;100.00
64340;BME280;63709;53.258;-8.814;2023-03-29T00:34:56;100347.66;;;15.52;100.00
64340;BME280;63709;53.258;-8.814;2023-03-29T00:37:25;100357.13;;;15.64;100.00
64340;BME280;63709;53.258;-8.814;2023-03-29T00:39:55;100349.72;;;15.58;100.00
64340;BME280;63709;53.258;-8.814;2023-03-29T00:42:21;100343.47;;;15.57;100.00
64340;BME280;63709;53.258;-8.814;2023-03-29T00:45:00;100337.72;;;15.52;100.00
64340;BME280;63709;53.258;-8.814;2023-03-29T00:47:33;100334.56;;;15.57;100.00
64340;BME280;63709;53.258;-8.814;2023-03-29T00:50:02;100328.50;;;15.55;100.00
64340;BME280;63709;53.258;-8.814;2023-03-29T00:52:29;100321.81;;;15.59;100.00
64340;BME280;63709;53.258;-8.814;2023-03-29T00:54:57;100311.53;;;15.54;100.00
64340;BME280;63709;53.258;-8.814;2023-03-29T00:57:23;100304.66;;;15.60;100.00
64340;BME280;63709;53.258;-8.814;2023-03-29T00:59:51;100289.03;;;15.63;100.00
64340;BME280;63709;53.258;-8.814;2023-03-29T01:02:22;100280.97;;;15.63;100.00
64340;BME280;63709;53.258;-8.814;2023-03-29T01:04:57;100275.53;;;15.55;100.00
64340;BME280;63709;53.258;-8.814;2023-03-29T01:07:49;100278.56;;;15.52;100.00
64340;BME280;63709;53.258;-8.814;2023-03-29T01:10:25;100267.78;;;15.52;100.00
64340;BME280;63709;53.258;-8.814;2023-03-29T01:12:53;100264.16;;;15.61;100.00
64340;BME280;63709;53.258;-8.814;2023-03-29T01:15:23;100264.66;;;15.65;100.00
64340;BME280;63709;53.258;-8.814;2023-03-29T01:17:50;100268.91;;;15.76;100.00
64340;BME280;63709;53.258;-8.814;2023-03-29T01:20:23;100271.28;;;15.79;100.00
64340;BME280;63709;53.258;-8.814;2023-03-29T01:28:14;100260.84;;;15.76;100.00
64340;BME280;63709;53.258;-8.814;2023-03-29T01:30:44;100266.91;;;15.69;100.00
64340;BME280;63709;53.258;-8.814;2023-03-29T01:33:13;100250.97;;;15.76;100.00
64340;BME280;63709;53.258;-8.814;2023-03-29T01:35:55;100257.16;;;15.68;100.00
64340;BME280;63709;53.258;-8.814;2023-03-29T01:38:25;100254.59;;;15.67;100.00
64340;BME280;63709;53.258;-8.814;2023-03-29T01:40:52;100243.75;;;15.51;100.00
64340;BME280;63709;53.258;-8.814;2023-03-29T01:43:23;100225.31;;;15.64;100.00
64340;BME280;63709;53.258;-8.814;2023-03-29T01:46:00;100219.25;;;15.62;100.00
64340;BME280;63709;53.258;-8.814;2023-03-29T01:48:29;100228.03;;;15.72;100.00
64340;BME280;63709;53.258;-8.814;2023-03-29T01:56:09;100226.88;;;15.66;100.00
64340;BME280;63709;53.258;-8.814;2023-03-29T01:58:39;100235.47;;;15.78;100.00
64340;BME280;63709;53.258;-8.814;2023-03-29T02:01:07;100226.88;;;15.75;100.00
64340;BME280;63709;53.258;-8.814;2023-03-29T02:03:37;100218.81;;;15.83;100.00
64340;BME280;63709;53.258;-8.814;2023-03-29T02:06:08;100221.81;;;15.71;100.00
64340;BME280;63709;53.258;-8.814;2023-03-29T02:08:35;100203.69;;;15.82;100.00
64340;BME280;63709;53.258;-8.814;2023-03-29T02:11:01;100195.44;;;15.83;100.00
64340;BME280;63709;53.258;-8.814;2023-03-29T02:13:26;100187.53;;;15.73;100.00
64340;BME280;63709;53.258;-8.814;2023-03-29T02:15:52;100182.84;;;15.84;100.00
64340;BME280;63709;53.258;-8.814;2023-03-29T02:18:17;100176.28;;;15.86;100.00
64340;BME280;63709;53.258;-8.814;2023-03-29T02:20:44;100179.50;;;15.90;100.00
64340;BME280;63709;53.258;-8.814;2023-03-29T02:23:14;100188.75;;;15.87;100.00
64340;BME280;63709;53.258;-8.814;2023-03-29T02:25:42;100174.78;;;15.92;100.00
64340;BME280;63709;53.258;-8.814;2023-03-29T02:28:09;100169.09;;;16.03;100.00
64340;BME280;63709;53.258;-8.814;2023-03-29T02:33:13;100165.56;;;15.94;100.00
64340;BME280;63709;53.258;-8.814;2023-03-29T02:35:47;100164.03;;;16.00;100.00
64340;BME280;63709;53.258;-8.814;2023-03-29T02:38:17;100148.91;;;15.99;100.00
64340;BME280;63709;53.258;-8.814;2023-03-29T02:40:43;100133.78;;;16.06;100.00
64340;BME280;63709;53.258;-8.814;2023-03-29T02:43:09;100125.50;;;16.16;100.00
64340;BME280;63709;53.258;-8.814;2023-03-29T02:45:37;100122.50;;;16.11;100.00
64340;BME280;63709;53.258;-8.814;2023-03-29T02:48:07;100124.69;;;16.07;100.00
64340;BME280;63709;53.258;-8.814;2023-03-29T02:50:34;100123.00;;;16.14;100.00
64340;BME280;63709;53.258;-8.814;2023-03-29T02:53:02;100111.38;;;16.14;100.00
64340;BME280;63709;53.258;-8.814;2023-03-29T02:55:31;100111.72;;;16.19;100.00
64340;BME280;63709;53.258;-8.814;2023-03-29T02:57:59;100125.69;;;16.23;100.00
64340;BME280;63709;53.258;-8.814;2023-03-29T03:00:30;100117.09;;;16.11;100.00
64340;BME280;63709;53.258;-8.814;2023-03-29T03:02:56;100123.97;;;16.05;100.00
64340;BME280;63709;53.258;-8.814;2023-03-29T03:05:23;100115.41;;;16.18;100.00
64340;BME280;63709;53.258;-8.814;2023-03-29T03:07:50;100105.66;;;16.09;100.00
64340;BME280;63709;53.258;-8.814;2023-03-29T03:10:16;100094.06;;;16.25;100.00
64340;BME280;63709;53.258;-8.814;2023-03-29T03:12:43;100076.38;;;16.14;100.00
64340;BME280;63709;53.258;-8.814;2023-03-29T03:15:09;100076.06;;;16.17;100.00
64340;BME280;63709;53.258;-8.814;2023-03-29T03:17:34;100064.78;;;16.13;100.00
64340;BME280;63709;53.258;-8.814;2023-03-29T03:20:07;100046.56;;;16.24;100.00
64340;BME280;63709;53.258;-8.814;2023-03-29T03:22:37;100054.84;;;16.14;100.00
64340;BME280;63709;53.258;-8.814;2023-03-29T03:25:04;100049.94;;;16.26;100.00
64340;BME280;63709;53.258;-8.814;2023-03-29T03:27:30;100044.91;;;16.14;100.00
64340;BME280;63709;53.258;-8.814;2023-03-29T03:29:56;100038.00;;;16.20;100.00
64340;BME280;63709;53.258;-8.814;2023-03-29T03:32:22;100019.00;;;16.21;100.00
64340;BME280;63709;53.258;-8.814;2023-03-29T03:34:48;100019.50;;;16.25;100.00
64340;BME280;63709;53.258;-8.814;2023-03-29T03:37:15;100028.09;;;16.04;100.00
64340;BME280;63709;53.258;-8.814;2023-03-29T03:39:40;100025.88;;;16.16;100.00
64340;BME280;63709;53.258;-8.814;2023-03-29T03:42:07;100009.75;;;16.08;100.00
64340;BME280;63709;53.258;-8.814;2023-03-29T03:44:32;100009.72;;;16.16;100.00
64340;BME280;63709;53.258;-8.814;2023-03-29T03:46:59;100001.84;;;16.14;100.00
64340;BME280;63709;53.258;-8.814;2023-03-29T03:49:24;99990.59;;;15.94;100.00
64340;BME280;63709;53.258;-8.814;2023-03-29T03:51:50;99987.19;;;16.09;100.00
64340;BME280;63709;53.258;-8.814;2023-03-29T03:54:17;99972.72;;;16.18;100.00
64340;BME280;63709;53.258;-8.814;2023-03-29T03:56:42;99972.88;;;16.16;100.00
64340;BME280;63709;53.258;-8.814;2023-03-29T03:59:08;99972.88;;;16.16;100.00
64340;BME280;63709;53.258;-8.814;2023-03-29T04:01:36;99966.19;;;16.04;100.00
64340;BME280;63709;53.258;-8.814;2023-03-29T04:04:04;99968.69;;;16.14;100.00
64340;BME280;63709;53.258;-8.814;2023-03-29T04:06:29;99972.25;;;16.06;100.00
64340;BME280;63709;53.258;-8.814;2023-03-29T04:08:55;99962.16;;;16.00;100.00
64340;BME280;63709;53.258;-8.814;2023-03-29T04:11:21;99955.59;;;16.03;100.00
64340;BME280;63709;53.258;-8.814;2023-03-29T04:13:47;99948.03;;;15.90;100.00
64340;BME280;63709;53.258;-8.814;2023-03-29T04:16:13;99954.44;;;15.89;100.00
64340;BME280;63709;53.258;-8.814;2023-03-29T04:18:39;99953.94;;;15.85;100.00
64340;BME280;63709;53.258;-8.814;2023-03-29T04:21:05;99945.31;;;15.98;100.00
64340;BME280;63709;53.258;-8.814;2023-03-29T04:23:31;99939.59;;;16.09;100.00
64340;BME280;63709;53.258;-8.814;2023-03-29T04:25:56;99933.59;;;15.91;100.00
64340;BME280;63709;53.258;-8.814;2023-03-29T04:28:22;99914.03;;;15.97;100.00
64340;BME280;63709;53.258;-8.814;2023-03-29T04:30:47;99914.38;;;15.94;100.00
64340;BME280;63709;53.258;-8.814;2023-03-29T04:33:13;99906.34;;;15.86;100.00
64340;BME280;63709;53.258;-8.814;2023-03-29T04:35:38;99913.88;;;15.90;100.00
64340;BME280;63709;53.258;-8.814;2023-03-29T04:38:04;99899.09;;;15.86;100.00
64340;BME280;63709;53.258;-8.814;2023-03-29T04:40:29;99892.00;;;15.93;100.00
64340;BME280;63709;53.258;-8.814;2023-03-29T04:42:56;99892.50;;;15.97;100.00
64340;BME280;63709;53.258;-8.814;2023-03-29T04:45:21;99889.50;;;15.92;100.00
64340;BME280;63709;53.258;-8.814;2023-03-29T04:47:48;99891.72;;;15.88;100.00
64340;BME280;63709;53.258;-8.814;2023-03-29T04:50:13;99888.50;;;15.93;100.00
64340;BME280;63709;53.258;-8.814;2023-03-29T04:52:40;99876.03;;;16.00;100.00
64340;BME280;63709;53.258;-8.814;2023-03-29T04:55:06;99881.56;;;16.07;100.00
64340;BME280;63709;53.258;-8.814;2023-03-29T04:57:32;99872.31;;;16.01;100.00
64340;BME280;63709;53.258;-8.814;2023-03-29T05:00:00;99869.31;;;15.96;100.00
64340;BME280;63709;53.258;-8.814;2023-03-29T05:02:26;99859.22;;;15.90;100.00
64340;BME280;63709;53.258;-8.814;2023-03-29T05:04:56;99849.63;;;15.95;100.00
64340;BME280;63709;53.258;-8.814;2023-03-29T05:07:24;99849.44;;;15.97;100.00
64340;BME280;63709;53.258;-8.814;2023-03-29T05:09:50;99839.38;;;15.99;100.00
64340;BME280;63709;53.258;-8.814;2023-03-29T05:12:16;99844.41;;;15.94;100.00
64340;BME280;63709;53.258;-8.814;2023-03-29T05:14:41;99843.91;;;15.90;100.00
64340;BME280;63709;53.258;-8.814;2023-03-29T05:17:07;99835.50;;;15.93;100.00
64340;BME280;63709;53.258;-8.814;2023-03-29T05:19:32;99830.84;;;15.79;100.00
64340;BME280;63709;53.258;-8.814;2023-03-29T05:21:58;99836.03;;;15.89;100.00
64340;BME280;63709;53.258;-8.814;2023-03-29T05:24:24;99817.19;;;15.89;100.00
64340;BME280;63709;53.258;-8.814;2023-03-29T05:26:49;99812.34;;;15.84;100.00
64340;BME280;63709;53.258;-8.814;2023-03-29T05:29:16;99815.69;;;15.86;100.00
64340;BME280;63709;53.258;-8.814;2023-03-29T05:31:42;99803.19;;;15.93;100.00
64340;BME280;63709;53.258;-8.814;2023-03-29T05:34:07;99807.09;;;15.91;100.00
64340;BME280;63709;53.258;-8.814;2023-03-29T05:36:32;99798.53;;;15.87;100.00
64340;BME280;63709;53.258;-8.814;2023-03-29T05:38:58;99798.84;;;15.92;100.00
64340;BME280;63709;53.258;-8.814;2023-03-29T05:41:24;99787.88;;;15.94;100.00
64340;BME280;63709;53.258;-8.814;2023-03-29T05:43:50;99784.31;;;16.02;100.00
64340;BME280;63709;53.258;-8.814;2023-03-29T05:46:15;99788.81;;;15.78;100.00
64340;BME280;63709;53.258;-8.814;2023-03-29T05:48:41;99774.47;;;15.86;100.00
64340;BME280;63709;53.258;-8.814;2023-03-29T05:51:07;99778.00;;;15.94;100.00
64340;BME280;63709;53.258;-8.814;2023-03-29T05:53:32;99765.84;;;15.99;100.00
64340;BME280;63709;53.258;-8.814;2023-03-29T05:55:59;99773.25;;;15.96;100.00
64340;BME280;63709;53.258;-8.814;2023-03-29T05:58:24;99753.78;;;15.94;100.00
64340;BME280;63709;53.258;-8.814;2023-03-29T06:00:50;99743.25;;;16.08;100.00
64340;BME280;63709;53.258;-8.814;2023-03-29T06:03:18;99743.78;;;16.03;100.00
64340;BME280;63709;53.258;-8.814;2023-03-29T06:05:47;99739.44;;;16.02;100.00
64340;BME280;63709;53.258;-8.814;2023-03-29T06:08:14;99727.78;;;16.02;100.00
64340;BME280;63709;53.258;-8.814;2023-03-29T06:10:39;99727.38;;;15.90;100.00
64340;BME280;63709;53.258;-8.814;2023-03-29T06:13:05;99711.28;;;15.82;100.00
64340;BME280;63709;53.258;-8.814;2023-03-29T06:15:31;99701.53;;;15.81;100.00
64340;BME280;63709;53.258;-8.814;2023-03-29T06:17:58;99700.50;;;15.82;100.00
64340;BME280;63709;53.258;-8.814;2023-03-29T06:20:23;99702.16;;;15.83;100.00
64340;BME280;63709;53.258;-8.814;2023-03-29T06:22:50;99698.56;;;15.67;100.00
64340;BME280;63709;53.258;-8.814;2023-03-29T06:25:17;99683.38;;;15.75;100.00
64340;BME280;63709;53.258;-8.814;2023-03-29T06:27:44;99687.25;;;15.80;100.00
64340;BME280;63709;53.258;-8.814;2023-03-29T06:30:11;99692.47;;;15.73;100.00
64340;BME280;63709;53.258;-8.814;2023-03-29T06:32:37;99689.13;;;15.71;100.00
64340;BME280;63709;53.258;-8.814;2023-03-29T06:35:04;99670.50;;;15.62;100.00
64340;BME280;63709;53.258;-8.814;2023-03-29T06:37:36;99672.50;;;15.68;100.00
64340;BME280;63709;53.258;-8.814;2023-03-29T06:40:04;99672.16;;;15.71;100.00
64340;BME280;63709;53.258;-8.814;2023-03-29T06:42:31;99663.19;;;15.79;100.00
64340;BME280;63709;53.258;-8.814;2023-03-29T06:45:00;99660.56;;;15.62;100.00
64340;BME280;63709;53.258;-8.814;2023-03-29T06:47:27;99655.19;;;15.62;100.00
64340;BME280;63709;53.258;-8.814;2023-03-29T06:49:55;99653.53;;;15.53;100.00
64340;BME280;63709;53.258;-8.814;2023-03-29T06:52:20;99655.72;;;15.66;100.00
64340;BME280;63709;53.258;-8.814;2023-03-29T06:54:46;99654.03;;;15.57;100.00
64340;BME280;63709;53.258;-8.814;2023-03-29T06:57:13;99644.44;;;15.62;100.00
64340;BME280;63709;53.258;-8.814;2023-03-29T06:59:38;99654.16;;;15.63;100.00
64340;BME280;63709;53.258;-8.814;2023-03-29T07:02:04;99634.38;;;15.56;100.00
64340;BME280;63709;53.258;-8.814;2023-03-29T07:04:30;99638.56;;;15.59;100.00
64340;BME280;63709;53.258;-8.814;2023-03-29T07:06:56;99645.13;;;15.56;100.00
64340;BME280;63709;53.258;-8.814;2023-03-29T07:09:30;99645.81;;;15.58;100.00
64340;BME280;63709;53.258;-8.814;2023-03-29T07:11:59;99636.22;;;15.56;100.00
64340;BME280;63709;53.258;-8.814;2023-03-29T07:14:25;99638.53;;;15.67;100.00
64340;BME280;63709;53.258;-8.814;2023-03-29T07:16:53;99629.31;;;15.61;100.00
64340;BME280;63709;53.258;-8.814;2023-03-29T07:19:19;99618.56;;;15.61;100.00
64340;BME280;63709;53.258;-8.814;2023-03-29T07:21:47;99621.47;;;15.52;100.00
64340;BME280;63709;53.258;-8.814;2023-03-29T07:24:12;99617.03;;;15.59;100.00
64340;BME280;63709;53.258;-8.814;2023-03-29T07:26:38;99613.03;;;15.55;100.00
64340;BME280;63709;53.258;-8.814;2023-03-29T07:29:03;99593.00;;;15.57;100.00
64340;BME280;63709;53.258;-8.814;2023-03-29T07:31:29;99581.59;;;15.55;100.00
64340;BME280;63709;53.258;-8.814;2023-03-29T07:33:55;99585.75;;;15.35;100.00
64340;BME280;63709;53.258;-8.814;2023-03-29T07:36:21;99569.41;;;15.44;100.00
64340;BME280;63709;53.258;-8.814;2023-03-29T07:38:46;99563.81;;;15.46;100.00
64340;BME280;63709;53.258;-8.814;2023-03-29T07:41:14;99564.19;;;15.43;100.00
64340;BME280;63709;53.258;-8.814;2023-03-29T07:43:41;99561.03;;;15.39;100.00
64340;BME280;63709;53.258;-8.814;2023-03-29T07:46:08;99556.34;;;15.33;100.00
64340;BME280;63709;53.258;-8.814;2023-03-29T07:48:35;99535.44;;;15.20;100.00
64340;BME280;63709;53.258;-8.814;2023-03-29T07:51:01;99513.16;;;15.35;100.00
64340;BME280;63709;53.258;-8.814;2023-03-29T07:53:26;99529.13;;;15.36;100.00
64340;BME280;63709;53.258;-8.814;2023-03-29T07:55:53;99525.16;;;15.24;100.00
64340;BME280;63709;53.258;-8.814;2023-03-29T07:58:19;99532.22;;;15.25;100.00
64340;BME280;63709;53.258;-8.814;2023-03-29T08:00:46;99538.00;;;15.37;100.00
64340;BME280;63709;53.258;-8.814;2023-03-29T08:03:13;99538.00;;;15.37;100.00
64340;BME280;63709;53.258;-8.814;2023-03-29T08:05:39;99532.69;;;15.29;100.00
64340;BME280;63709;53.258;-8.814;2023-03-29T08:08:07;99519.91;;;15.31;100.00
64340;BME280;63709;53.258;-8.814;2023-03-29T08:10:34;99522.56;;;15.39;100.00
64340;BME280;63709;53.258;-8.814;2023-03-29T08:13:02;99526.59;;;15.35;100.00
64340;BME280;63709;53.258;-8.814;2023-03-29T08:15:28;99524.88;;;15.42;100.00
64340;BME280;63709;53.258;-8.814;2023-03-29T08:17:53;99515.06;;;15.49;100.00
64340;BME280;63709;53.258;-8.814;2023-03-29T08:20:19;99512.03;;;15.52;100.00
64340;BME280;63709;53.258;-8.814;2023-03-29T08:22:45;99520.22;;;15.36;100.00
64340;BME280;63709;53.258;-8.814;2023-03-29T08:25:11;99502.16;;;15.44;100.00
64340;BME280;63709;53.258;-8.814;2023-03-29T08:27:36;99500.63;;;15.50;100.00
64340;BME280;63709;53.258;-8.814;2023-03-29T08:30:03;99504.50;;;15.47;100.00
64340;BME280;63709;53.258;-8.814;2023-03-29T08:32:30;99515.75;;;15.51;100.00
64340;BME280;63709;53.258;-8.814;2023-03-29T08:34:55;99504.72;;;15.61;100.00
64340;BME280;63709;53.258;-8.814;2023-03-29T08:37:21;99502.28;;;15.51;100.00
64340;BME280;63709;53.258;-8.814;2023-03-29T08:39:50;99482.72;;;15.57;100.00
64340;BME280;63709;53.258;-8.814;2023-03-29T08:42:30;99484.91;;;15.62;100.00
64340;BME280;63709;53.258;-8.814;2023-03-29T08:45:07;99499.72;;;15.58;100.00
64340;BME280;63709;53.258;-8.814;2023-03-29T08:50:30;99508.75;;;15.65;100.00
64340;BME280;63709;53.258;-8.814;2023-03-29T08:52:58;99501.75;;;15.56;100.00
64340;BME280;63709;53.258;-8.814;2023-03-29T08:55:31;99483.56;;;15.66;100.00
64340;BME280;63709;53.258;-8.814;2023-03-29T08:57:59;99481.41;;;15.53;100.00
64340;BME280;63709;53.258;-8.814;2023-03-29T09:02:56;99472.25;;;15.70;100.00
64340;BME280;63709;53.258;-8.814;2023-03-29T09:07:49;99482.66;;;15.73;100.00
64340;BME280;63709;53.258;-8.814;2023-03-29T09:10:24;99493.81;;;15.85;100.00
64340;BME280;63709;53.258;-8.814;2023-03-29T09:13:07;99503.63;;;15.78;100.00
64340;BME280;63709;53.258;-8.814;2023-03-29T09:15:43;99482.00;;;15.86;100.00
64340;BME280;63709;53.258;-8.814;2023-03-29T09:21:04;99471.59;;;16.06;100.00
64340;BME280;63709;53.258;-8.814;2023-03-29T09:31:14;99466.56;;;16.18;100.00
64340;BME280;63709;53.258;-8.814;2023-03-29T09:33:55;99463.59;;;16.28;100.00
64340;BME280;63709;53.258;-8.814;2023-03-29T09:38:54;99451.34;;;16.55;100.00
64340;BME280;63709;53.258;-8.814;2023-03-29T09:41:21;99450.84;;;16.66;100.00
64340;BME280;63709;53.258;-8.814;2023-03-29T09:43:50;99440.09;;;16.66;100.00
64340;BME280;63709;53.258;-8.814;2023-03-29T09:46:28;99434.63;;;16.74;100.00
64340;BME280;63709;53.258;-8.814;2023-03-29T09:48:58;99432.47;;;16.84;100.00
64340;BME280;63709;53.258;-8.814;2023-03-29T09:51:25;99428.53;;;16.87;100.00
64340;BME280;63709;53.258;-8.814;2023-03-29T10:36:08;99428.50;;;17.45;100.00
64340;BME280;63709;53.258;-8.814;2023-03-29T10:38:45;99430.91;;;17.61;100.00
64340;BME280;63709;53.258;-8.814;2023-03-29T10:41:19;99419.56;;;17.65;100.00
64340;BME280;63709;53.258;-8.814;2023-03-29T10:43:48;99405.56;;;17.55;100.00
64340;BME280;63709;53.258;-8.814;2023-03-29T10:46:31;99405.09;;;17.73;100.00
64340;BME280;63709;53.258;-8.814;2023-03-29T10:49:03;99416.34;;;17.77;100.00
64340;BME280;63709;53.258;-8.814;2023-03-29T10:51:36;99399.19;;;17.63;100.00
64340;BME280;63709;53.258;-8.814;2023-03-29T10:54:02;99419.28;;;17.82;100.00
64340;BME280;63709;53.258;-8.814;2023-03-29T10:56:47;99423.25;;;17.86;100.00
64340;BME280;63709;53.258;-8.814;2023-03-29T10:59:23;99421.06;;;17.75;100.00
64340;BME280;63709;53.258;-8.814;2023-03-29T11:04:54;99416.19;;;17.85;100.00
64340;BME280;63709;53.258;-8.814;2023-03-29T11:08:04;99413.13;;;17.95;100.00
64340;BME280;63709;53.258;-8.814;2023-03-29T11:13:44;99405.91;;;18.02;100.00
64340;BME280;63709;53.258;-8.814;2023-03-29T11:16:28;99407.00;;;18.07;100.00
64340;BME280;63709;53.258;-8.814;2023-03-29T11:24:33;99403.19;;;18.30;100.00
64340;BME280;63709;53.258;-8.814;2023-03-29T11:33:17;99405.13;;;18.49;100.00
64340;BME280;63709;53.258;-8.814;2023-03-29T11:35:57;99410.22;;;18.72;100.00
64340;BME280;63709;53.258;-8.814;2023-03-29T11:38:33;99408.66;;;18.91;100.00
64340;BME280;63709;53.258;-8.814;2023-03-29T11:41:14;99388.88;;;18.97;100.00
64340;BME280;63709;53.258;-8.814;2023-03-29T11:43:50;99417.41;;;19.00;100.00
64340;BME280;63709;53.258;-8.814;2023-03-29T11:46:38;99415.75;;;18.99;100.00
64340;BME280;63709;53.258;-8.814;2023-03-29T11:49:20;99418.63;;;18.97;100.00
64340;BME280;63709;53.258;-8.814;2023-03-29T11:52:01;99414.47;;;18.95;100.00
64340;BME280;63709;53.258;-8.814;2023-03-29T11:57:28;99414.88;;;18.85;100.00
64340;BME280;63709;53.258;-8.814;2023-03-29T12:03:21;99433.34;;;18.75;100.00
64340;BME280;63709;53.258;-8.814;2023-03-29T12:05:59;99434.97;;;18.69;100.00
64340;BME280;63709;53.258;-8.814;2023-03-29T12:08:34;99449.28;;;18.63;100.00
64340;BME280;63709;53.258;-8.814;2023-03-29T12:11:10;99445.34;;;18.66;100.00
64340;BME280;63709;53.258;-8.814;2023-03-29T12:14:12;99456.06;;;18.52;100.00
64340;BME280;63709;53.258;-8.814;2023-03-29T12:16:53;99447.41;;;18.63;100.00
64340;BME280;63709;53.258;-8.814;2023-03-29T12:19:46;99455.31;;;18.65;100.00
64340;BME280;63709;53.258;-8.814;2023-03-29T12:22:14;99442.56;;;18.52;100.00
64340;BME280;63709;53.258;-8.814;2023-03-29T12:24:41;99445.44;;;18.44;100.00
64340;BME280;63709;53.258;-8.814;2023-03-29T12:33:18;99457.81;;;18.25;100.00
64340;BME280;63709;53.258;-8.814;2023-03-29T12:36:20;99452.22;;;17.99;100.00
64340;BME280;63709;53.258;-8.814;2023-03-29T12:38:55;99449.91;;;17.96;100.00
64340;BME280;63709;53.258;-8.814;2023-03-29T12:41:22;99448.28;;;18.01;100.00
64340;BME280;63709;53.258;-8.814;2023-03-29T12:43:49;99439.78;;;18.04;100.00
64340;BME280;63709;53.258;-8.814;2023-03-29T12:46:22;99444.38;;;18.04;100.00
64340;BME280;63709;53.258;-8.814;2023-03-29T12:48:56;99447.81;;;18.26;100.00
64340;BME280;63709;53.258;-8.814;2023-03-29T12:51:33;99448.13;;;18.09;100.00
64340;BME280;63709;53.258;-8.814;2023-03-29T12:54:19;99445.66;;;18.49;100.00
64340;BME280;63709;53.258;-8.814;2023-03-29T12:59:38;99425.66;;;18.78;100.00
64340;BME280;63709;53.258;-8.814;2023-03-29T13:07:29;99426.91;;;18.82;100.00
64340;BME280;63709;53.258;-8.814;2023-03-29T13:09:56;99424.44;;;18.88;100.00
64340;BME280;63709;53.258;-8.814;2023-03-29T13:12:34;99419.09;;;19.07;100.00
64340;BME280;63709;53.258;-8.814;2023-03-29T13:15:05;99426.97;;;19.09;100.00
64340;BME280;63709;53.258;-8.814;2023-03-29T13:21:04;99423.44;;;18.95;100.00
64340;BME280;63709;53.258;-8.814;2023-03-29T13:23:43;99425.28;;;18.88;100.00
64340;BME280;63709;53.258;-8.814;2023-03-29T13:29:11;99430.56;;;18.68;100.00
64340;BME280;63709;53.258;-8.814;2023-03-29T13:34:23;99458.59;;;18.60;100.00
64340;BME280;63709;53.258;-8.814;2023-03-29T13:37:01;99449.56;;;18.40;100.00
64340;BME280;63709;53.258;-8.814;2023-03-29T13:39:34;99434.59;;;18.37;100.00
64340;BME280;63709;53.258;-8.814;2023-03-29T13:45:13;99449.81;;;18.45;100.00
64340;BME280;63709;53.258;-8.814;2023-03-29T13:47:42;99451.72;;;18.51;100.00
64340;BME280;63709;53.258;-8.814;2023-03-29T13:50:15;99444.53;;;18.30;100.00
64340;BME280;63709;53.258;-8.814;2023-03-29T13:52:58;99448.34;;;18.49;100.00
64340;BME280;63709;53.258;-8.814;2023-03-29T13:55:30;99436.66;;;18.35;100.00
64340;BME280;63709;53.258;-8.814;2023-03-29T13:58:43;99441.78;;;18.24;100.00
64340;BME280;63709;53.258;-8.814;2023-03-29T14:01:35;99430.34;;;18.22;100.00
64340;BME280;63709;53.258;-8.814;2023-03-29T14:04:06;99437.59;;;18.14;100.00
64340;BME280;63709;53.258;-8.814;2023-03-29T14:06:37;99417.09;;;17.71;100.00
64340;BME280;63709;53.258;-8.814;2023-03-29T14:09:06;99434.91;;;17.65;100.00
64340;BME280;63709;53.258;-8.814;2023-03-29T14:11:34;99424.94;;;17.65;100.00
64340;BME280;63709;53.258;-8.814;2023-03-29T14:14:03;99432.84;;;17.67;100.00
64340;BME280;63709;53.258;-8.814;2023-03-29T14:16:36;99412.97;;;17.47;100.00
64340;BME280;63709;53.258;-8.814;2023-03-29T14:19:10;99432.63;;;17.69;100.00
64340;BME280;63709;53.258;-8.814;2023-03-29T14:21:40;99412.53;;;17.71;100.00
64340;BME280;63709;53.258;-8.814;2023-03-29T14:24:10;99429.38;;;17.73;100.00
64340;BME280;63709;53.258;-8.814;2023-03-29T14:26:37;99427.63;;;17.87;100.00
64340;BME280;63709;53.258;-8.814;2023-03-29T14:29:09;99412.97;;;17.75;100.00
64340;BME280;63709;53.258;-8.814;2023-03-29T14:31:37;99414.38;;;17.92;100.00
64340;BME280;63709;53.258;-8.814;2023-03-29T14:34:09;99425.03;;;18.00;100.00
64340;BME280;63709;53.258;-8.814;2023-03-29T14:36:37;99425.69;;;18.09;100.00
64340;BME280;63709;53.258;-8.814;2023-03-29T14:39:20;99424.50;;;18.18;100.00
64340;BME280;63709;53.258;-8.814;2023-03-29T14:41:54;99421.38;;;18.56;100.00
64340;BME280;63709;53.258;-8.814;2023-03-29T14:44:23;99421.56;;;19.02;100.00
64340;BME280;63709;53.258;-8.814;2023-03-29T14:46:50;99427.47;;;19.52;100.00
64340;BME280;63709;53.258;-8.814;2023-03-29T14:49:17;99421.88;;;19.67;100.00
64340;BME280;63709;53.258;-8.814;2023-03-29T14:51:45;99418.53;;;19.78;100.00
64340;BME280;63709;53.258;-8.814;2023-03-29T14:54:26;99417.28;;;19.81;100.00
64340;BME280;63709;53.258;-8.814;2023-03-29T14:56:54;99417.91;;;19.90;100.00